createdAt,value
2023-06-22T00:00:16.508Z,7.00
2023-06-22T00:03:26.034Z,7.35
2023-06-22T00:06:27.766Z,8.03
2023-06-22T00:09:29.333Z,7.80
2023-06-22T00:12:31.244Z,8.45
2023-06-22T00:15:33.350Z,8.18
2023-06-22T00:18:35.022Z,8.45
2023-06-22T00:21:36.723Z,8.13
2023-06-22T00:24:38.336Z,8.15
2023-06-22T00:27:40.208Z,7.78
2023-06-22T00:30:42.096Z,8.02
2023-06-22T00:33:43.741Z,7.88
2023-06-22T00:36:45.535Z,7.72
2023-06-22T00:39:47.204Z,7.15
2023-06-22T00:42:48.823Z,8.30
2023-06-22T00:45:50.556Z,7.95
2023-06-22T00:48:53.675Z,8.02
2023-06-22T00:51:58.322Z,8.27
2023-06-22T00:55:02.827Z,8.18
2023-06-22T00:58:08.935Z,8.35
2023-06-22T01:01:10.777Z,8.15
2023-06-22T01:04:13.073Z,8.02
2023-06-22T01:07:39.692Z,8.80
2023-06-22T01:11:06.721Z,9.65
2023-06-22T01:14:15.429Z,8.90
2023-06-22T01:17:18.763Z,8.90
2023-06-22T01:20:22.112Z,8.70
2023-06-22T01:23:52.616Z,8.07
2023-06-22T01:30:11.689Z,9.05
2023-06-22T01:33:15.028Z,10.48
2023-06-22T01:36:18.345Z,8.80
2023-06-22T01:39:23.217Z,8.40
2023-06-22T01:42:29.534Z,9.10
2023-06-22T01:45:32.142Z,8.40
2023-06-22T01:48:34.142Z,9.18
2023-06-22T01:51:37.386Z,8.95
2023-06-22T01:54:41.238Z,9.02
2023-06-22T01:57:43.046Z,9.52
2023-06-22T02:00:54.436Z,10.00
2023-06-22T02:04:13.975Z,10.20
2023-06-22T02:07:18.391Z,10.67
2023-06-22T02:10:22.910Z,9.63
2023-06-22T02:13:26.167Z,9.77
2023-06-22T02:16:31.147Z,9.95
2023-06-22T02:19:34.423Z,11.15
2023-06-22T02:22:37.170Z,11.13
2023-06-22T02:25:38.917Z,11.65
2023-06-22T02:28:40.634Z,11.60
2023-06-22T02:31:42.552Z,11.63
2023-06-22T02:34:48.825Z,11.10
2023-06-22T02:37:53.073Z,11.68
2023-06-22T02:40:54.781Z,11.38
2023-06-22T02:43:56.512Z,10.85
2023-06-22T02:46:59.360Z,10.65
2023-06-22T02:50:01.650Z,9.80
2023-06-22T02:53:05.392Z,10.30
2023-06-22T02:56:11.659Z,11.85
2023-06-22T02:59:13.413Z,10.38
2023-06-22T03:02:15.442Z,11.13
2023-06-22T03:05:19.597Z,11.40
2023-06-22T03:08:22.901Z,10.85
2023-06-22T03:11:24.862Z,10.88
2023-06-22T03:14:26.502Z,11.43
2023-06-22T03:17:28.971Z,10.63
2023-06-22T03:20:34.995Z,11.00
2023-06-22T03:23:37.618Z,11.48
2023-06-22T03:26:39.174Z,11.55
2023-06-22T03:29:40.810Z,11.52
2023-06-22T03:32:43.929Z,11.07
2023-06-22T03:35:45.671Z,11.52
2023-06-22T03:38:48.909Z,11.65
2023-06-22T03:41:50.621Z,11.80
2023-06-22T03:44:53.323Z,11.75
2023-06-22T03:47:55.022Z,11.48
2023-06-22T03:50:56.626Z,12.07
2023-06-22T03:53:58.262Z,11.77
2023-06-22T03:57:00.963Z,10.85
2023-06-22T04:00:03.918Z,11.43
2023-06-22T04:03:15.043Z,12.02
2023-06-22T04:06:16.871Z,12.60
2023-06-22T04:09:18.834Z,12.10
2023-06-22T04:12:20.723Z,11.95
2023-06-22T04:15:22.720Z,11.45
2023-06-22T04:18:24.432Z,11.57
2023-06-22T04:21:26.086Z,12.15
2023-06-22T04:24:27.954Z,11.38
2023-06-22T04:27:29.650Z,12.15
2023-06-22T04:30:32.800Z,12.80
2023-06-22T04:33:34.519Z,12.07
2023-06-22T04:36:42.593Z,11.32
2023-06-22T04:39:44.536Z,11.88
2023-06-22T04:42:53.625Z,11.48
2023-06-22T04:45:55.280Z,11.18
2023-06-22T04:48:56.963Z,11.48
2023-06-22T04:51:58.563Z,10.90
2023-06-22T04:55:01.460Z,11.52
2023-06-22T04:58:05.823Z,10.93
2023-06-22T05:01:09.973Z,13.20
2023-06-22T05:04:12.016Z,13.50
2023-06-22T05:07:14.418Z,12.57
2023-06-22T05:10:16.435Z,12.55
2023-06-22T05:13:18.005Z,11.88
2023-06-22T05:16:24.827Z,12.70
2023-06-22T05:19:32.612Z,12.98
2023-06-22T05:22:34.666Z,13.27
2023-06-22T05:25:36.394Z,13.00
2023-06-22T05:28:38.165Z,13.13
2023-06-22T05:31:41.726Z,13.07
2023-06-22T05:34:43.659Z,12.40
2023-06-22T05:37:45.946Z,12.07
2023-06-22T05:40:49.091Z,12.70
2023-06-22T05:43:50.925Z,12.73
2023-06-22T05:46:52.673Z,14.18
2023-06-22T05:49:54.447Z,12.07
2023-06-22T05:52:56.080Z,12.75
2023-06-22T05:55:58.059Z,12.35
2023-06-22T05:58:59.674Z,12.65
2023-06-22T06:02:01.363Z,12.30
2023-06-22T06:05:03.736Z,12.32
2023-06-22T06:08:07.015Z,12.80
2023-06-22T06:11:08.843Z,13.15
2023-06-22T06:14:10.600Z,12.77
2023-06-22T06:17:12.598Z,11.65
2023-06-22T06:20:14.385Z,12.98
2023-06-22T06:23:16.127Z,11.82
2023-06-22T06:26:18.134Z,11.75
2023-06-22T06:29:19.833Z,12.82
2023-06-22T06:32:21.597Z,12.10
2023-06-22T06:35:23.407Z,11.57
2023-06-22T06:38:25.027Z,11.27
2023-06-22T06:41:26.802Z,10.57
2023-06-22T06:44:28.862Z,10.98
2023-06-22T06:47:30.764Z,11.13
2023-06-22T06:50:32.940Z,11.05
2023-06-22T06:53:34.967Z,11.32
2023-06-22T06:56:36.930Z,10.30
2023-06-22T06:59:38.606Z,10.90
2023-06-22T07:02:41.464Z,11.60
2023-06-22T07:05:43.113Z,9.82
2023-06-22T07:08:44.863Z,9.60
2023-06-22T07:11:46.494Z,8.23
2023-06-22T07:14:48.334Z,9.45
2023-06-22T07:17:49.978Z,10.88
2023-06-22T07:20:51.712Z,10.02
2023-06-22T07:23:53.420Z,9.63
2023-06-22T07:26:55.393Z,9.20
2023-06-22T07:29:57.180Z,8.73
2023-06-22T07:33:00.150Z,8.40
2023-06-22T07:36:02.409Z,7.40
2023-06-22T07:39:05.029Z,7.97
2023-06-22T07:42:06.941Z,7.78
2023-06-22T07:45:09.645Z,6.93
2023-06-22T07:48:11.618Z,7.70
2023-06-22T07:51:15.995Z,7.85
2023-06-22T07:54:18.460Z,7.65
2023-06-22T07:57:20.994Z,7.38
2023-06-22T08:00:23.022Z,7.47
2023-06-22T08:03:24.756Z,7.60
2023-06-22T08:06:26.695Z,7.65
2023-06-22T08:09:35.195Z,7.95
2023-06-22T08:12:36.870Z,8.00
2023-06-22T08:15:38.530Z,8.27
2023-06-22T08:18:40.536Z,8.57
2023-06-22T08:21:42.202Z,8.63
2023-06-22T08:24:43.930Z,8.15
2023-06-22T08:27:51.671Z,8.07
2023-06-22T08:30:53.373Z,8.40
2023-06-22T08:33:55.086Z,7.72
2023-06-22T08:36:56.703Z,7.30
2023-06-22T08:40:00.718Z,7.80
2023-06-22T08:43:02.519Z,6.70
2023-06-22T08:46:04.319Z,6.85
2023-06-22T08:49:06.279Z,6.90
2023-06-22T08:52:09.020Z,7.40
2023-06-22T08:55:11.344Z,7.28
2023-06-22T08:58:16.720Z,7.18
2023-06-22T09:01:18.261Z,7.20
2023-06-22T09:04:20.072Z,7.63
2023-06-22T09:07:23.504Z,7.38
2023-06-22T09:10:26.372Z,7.70
2023-06-22T09:13:31.609Z,7.93
2023-06-22T09:16:33.520Z,7.43
2023-06-22T09:19:35.192Z,8.10
2023-06-22T09:22:37.035Z,7.70
2023-06-22T09:25:38.659Z,8.32
2023-06-22T09:28:40.285Z,8.00
2023-06-22T09:31:42.286Z,7.90
2023-06-22T09:34:44.399Z,8.20
2023-06-22T09:37:46.659Z,8.50
2023-06-22T09:40:48.460Z,7.43
2023-06-22T09:43:50.241Z,8.07
2023-06-22T09:46:52.207Z,8.60
2023-06-22T09:49:55.451Z,8.25
2023-06-22T09:52:57.038Z,8.73
2023-06-22T09:55:59.045Z,8.80
2023-06-22T09:59:14.042Z,8.48
2023-06-22T10:02:20.014Z,8.70
2023-06-22T10:05:22.131Z,8.57
2023-06-22T10:08:23.925Z,8.55
2023-06-22T10:11:30.290Z,8.55
2023-06-22T10:14:32.378Z,9.00
2023-06-22T10:17:34.507Z,8.98
2023-06-22T10:20:36.384Z,8.60
2023-06-22T10:23:38.140Z,8.35
2023-06-22T10:26:40.025Z,7.95
2023-06-22T10:29:42.722Z,8.80
2023-06-22T10:32:44.969Z,9.23
2023-06-22T10:35:47.082Z,8.52
2023-06-22T10:38:49.249Z,8.95
2023-06-22T10:41:50.859Z,9.07
2023-06-22T10:44:52.579Z,9.20
2023-06-22T10:47:54.503Z,9.38
2023-06-22T10:50:56.286Z,9.85
2023-06-22T10:53:58.190Z,9.85
2023-06-22T10:56:59.965Z,9.38
2023-06-22T11:00:01.905Z,11.10
2023-06-22T11:03:03.990Z,10.18
2023-06-22T11:06:05.888Z,10.05
2023-06-22T11:12:13.826Z,10.57
2023-06-22T11:15:15.503Z,10.02
2023-06-22T11:18:17.434Z,9.70
2023-06-22T11:21:19.201Z,10.93
2023-06-22T11:24:21.237Z,10.55
2023-06-22T11:27:22.992Z,11.15
2023-06-22T11:30:25.185Z,11.23
2023-06-22T11:33:27.236Z,11.57
2023-06-22T11:36:30.294Z,11.40
2023-06-22T11:39:40.200Z,12.88
2023-06-22T11:42:45.107Z,11.20
2023-06-22T11:45:47.100Z,10.60
2023-06-22T11:48:48.981Z,10.98
2023-06-22T11:51:50.805Z,10.48
2023-06-22T11:54:52.612Z,10.15
2023-06-22T11:57:57.018Z,9.63
2023-06-22T12:00:58.834Z,9.73
2023-06-22T12:04:00.614Z,9.30
2023-06-22T12:07:03.535Z,8.75
2023-06-22T12:10:06.853Z,9.23
2023-06-22T12:13:08.663Z,8.73
2023-06-22T12:16:11.037Z,8.98
2023-06-22T12:19:13.156Z,9.93
2023-06-22T12:22:15.127Z,9.43
2023-06-22T12:25:16.970Z,9.98
2023-06-22T12:28:18.888Z,10.25
2023-06-22T12:31:20.602Z,9.50
2023-06-22T12:34:26.326Z,10.07
2023-06-22T12:37:28.544Z,10.00
2023-06-22T12:40:30.930Z,9.65
2023-06-22T12:43:32.955Z,9.40
2023-06-22T12:46:38.915Z,9.95
2023-06-22T12:49:40.908Z,9.32
2023-06-22T12:52:43.575Z,9.30
2023-06-22T12:55:45.378Z,9.40
2023-06-22T12:58:47.193Z,11.52
2023-06-22T13:01:49.046Z,10.70
2023-06-22T13:04:50.880Z,13.57
2023-06-22T13:07:52.661Z,13.07
2023-06-22T13:10:54.355Z,14.65
2023-06-22T13:13:56.128Z,11.95
2023-06-22T13:16:58.021Z,12.60
2023-06-22T13:19:59.921Z,12.60
2023-06-22T13:23:01.893Z,13.13
2023-06-22T13:26:04.188Z,13.00
2023-06-22T13:29:06.084Z,13.70
2023-06-22T13:32:08.193Z,12.88
2023-06-22T13:35:13.625Z,11.80
2023-06-22T13:38:15.665Z,11.85
2023-06-22T13:41:17.405Z,11.20
2023-06-22T13:44:19.154Z,12.63
2023-06-22T13:47:21.205Z,12.07
2023-06-22T13:50:24.804Z,11.82
2023-06-22T13:53:29.514Z,12.20
2023-06-22T13:56:31.182Z,11.80
2023-06-22T13:59:33.158Z,10.63
2023-06-22T14:02:34.974Z,11.32
2023-06-22T14:05:36.952Z,11.23
2023-06-22T14:08:42.130Z,12.00
2023-06-22T14:11:44.511Z,13.93
2023-06-22T14:14:46.368Z,14.30
2023-06-22T14:17:48.247Z,13.98
2023-06-22T14:20:50.597Z,15.63
2023-06-22T14:23:52.419Z,15.68
2023-06-22T14:26:55.679Z,15.98
2023-06-22T14:29:57.618Z,16.30
2023-06-22T14:32:59.465Z,14.95
2023-06-22T14:36:01.073Z,15.32
2023-06-22T14:39:03.090Z,16.45
2023-06-22T14:42:05.010Z,16.30
2023-06-22T14:45:07.469Z,15.15
2023-06-22T14:48:09.271Z,15.38
2023-06-22T14:51:14.473Z,15.27
2023-06-22T14:54:18.911Z,15.05
2023-06-22T14:57:21.346Z,14.90
2023-06-22T15:00:25.883Z,15.05
2023-06-22T15:03:29.922Z,15.50
2023-06-22T15:06:31.625Z,15.20
2023-06-22T15:09:34.353Z,16.33
2023-06-22T15:12:36.237Z,18.30
2023-06-22T15:15:37.889Z,18.60
2023-06-22T15:18:41.912Z,19.42
2023-06-22T15:21:44.500Z,18.65
2023-06-22T15:24:49.163Z,19.83
2023-06-22T15:27:50.907Z,20.45
2023-06-22T15:30:53.369Z,20.20
2023-06-22T15:33:55.296Z,21.88
2023-06-22T15:36:57.177Z,21.08
2023-06-22T15:39:59.851Z,20.00
2023-06-22T15:43:01.657Z,19.08
2023-06-22T15:46:03.357Z,17.88
2023-06-22T15:49:05.413Z,19.90
2023-06-22T15:52:07.622Z,19.83
2023-06-22T15:55:10.822Z,20.98
2023-06-22T15:58:14.090Z,20.55
2023-06-22T16:01:16.418Z,20.95
2023-06-22T16:04:18.759Z,21.33
2023-06-22T16:07:21.009Z,20.45
2023-06-22T16:10:22.931Z,20.42
2023-06-22T16:13:24.723Z,19.52
2023-06-22T16:16:32.622Z,21.35
2023-06-22T16:19:34.898Z,20.00
2023-06-22T16:22:37.187Z,19.83
2023-06-22T16:25:39.135Z,19.95
2023-06-22T16:28:41.213Z,18.75
2023-06-22T16:31:44.038Z,17.85
2023-06-22T16:34:49.176Z,18.52
2023-06-22T16:37:50.979Z,18.75
2023-06-22T16:40:53.268Z,18.83
2023-06-22T16:43:55.310Z,19.40
2023-06-22T16:46:59.145Z,18.08
2023-06-22T16:50:01.138Z,17.90
2023-06-22T16:53:03.113Z,17.40
2023-06-22T16:56:05.280Z,16.90
2023-06-22T16:59:08.252Z,17.48
2023-06-22T17:02:18.908Z,16.80
2023-06-22T17:05:20.762Z,16.25
2023-06-22T17:08:23.947Z,15.77
2023-06-22T17:11:26.413Z,15.75
2023-06-22T17:14:29.496Z,16.35
2023-06-22T17:17:31.952Z,16.65
2023-06-22T17:20:33.865Z,16.70
2023-06-22T17:23:36.172Z,17.75
2023-06-22T17:26:38.223Z,16.33
2023-06-22T17:29:42.031Z,16.20
2023-06-22T17:32:47.273Z,16.98
2023-06-22T17:35:57.178Z,16.63
2023-06-22T17:39:07.652Z,17.20
2023-06-22T17:42:11.619Z,17.27
2023-06-22T17:45:29.783Z,16.42
2023-06-22T17:48:34.053Z,16.85
2023-06-22T17:51:47.091Z,18.02
2023-06-22T17:58:03.178Z,17.80
2023-06-22T18:01:08.205Z,15.95
2023-06-22T18:04:15.562Z,16.83
2023-06-22T18:07:21.086Z,17.23
2023-06-22T18:10:29.712Z,16.10
2023-06-22T18:13:37.184Z,16.38
2023-06-22T18:16:46.695Z,16.88
2023-06-22T18:19:52.887Z,16.73
2023-06-22T18:23:00.824Z,17.77
2023-06-22T18:26:09.610Z,16.90
2023-06-22T18:33:08.302Z,17.63
2023-06-22T18:36:12.761Z,18.55
2023-06-22T18:47:49.004Z,17.13
2023-06-22T18:51:12.804Z,17.98
2023-06-22T18:54:39.908Z,18.33
2023-06-22T18:57:47.604Z,16.83
2023-06-22T19:01:37.648Z,17.33
2023-06-22T19:05:02.608Z,16.63
2023-06-22T19:08:27.007Z,17.33
2023-06-22T19:11:53.083Z,16.58
2023-06-22T19:15:27.742Z,16.35
2023-06-22T19:19:11.439Z,16.03
2023-06-22T19:26:54.227Z,16.48
2023-06-22T19:29:57.534Z,17.02
2023-06-22T19:33:00.013Z,17.40
2023-06-22T19:36:04.359Z,16.88
2023-06-22T19:39:07.123Z,17.40
2023-06-22T19:42:09.721Z,16.55
2023-06-22T19:45:17.900Z,15.93
2023-06-22T19:48:20.388Z,16.17
2023-06-22T19:51:23.301Z,15.85
2023-06-22T19:54:26.105Z,16.75
2023-06-22T19:57:28.587Z,16.17
2023-06-22T20:00:31.439Z,15.68
2023-06-22T20:03:49.034Z,15.65
2023-06-22T20:07:07.456Z,14.55
2023-06-22T20:10:23.740Z,14.70
2023-06-22T20:13:26.811Z,15.20
2023-06-22T20:16:32.115Z,15.48
2023-06-22T20:19:42.406Z,14.68
2023-06-22T20:22:58.121Z,15.05
2023-06-22T20:26:08.556Z,14.88
2023-06-22T20:29:43.386Z,16.20
2023-06-22T20:33:01.272Z,16.88
2023-06-22T20:36:11.827Z,15.27
2023-06-22T20:39:29.623Z,15.50
2023-06-22T20:42:59.698Z,14.85
2023-06-22T20:46:28.458Z,14.93
2023-06-22T20:49:38.887Z,13.98
2023-06-22T20:52:45.750Z,14.30
2023-06-22T20:56:03.760Z,14.23
2023-06-22T21:03:12.325Z,12.68
2023-06-22T21:06:20.230Z,13.02
2023-06-22T21:09:23.659Z,11.98
2023-06-22T21:12:28.168Z,10.43
2023-06-22T21:15:31.089Z,10.23
2023-06-22T21:18:42.477Z,9.55
2023-06-22T21:21:46.541Z,10.02
2023-06-22T21:25:21.751Z,9.55
2023-06-22T21:28:37.564Z,9.98
2023-06-22T21:31:53.634Z,10.35
2023-06-22T21:35:03.186Z,10.27
2023-06-22T21:38:25.162Z,11.18
2023-06-22T21:45:37.636Z,9.60
2023-06-22T21:48:40.873Z,8.93
2023-06-22T21:51:43.005Z,10.05
2023-06-22T21:54:45.116Z,9.70
2023-06-22T21:57:47.151Z,9.65
2023-06-22T22:00:48.985Z,9.25
2023-06-22T22:03:52.406Z,9.98
2023-06-22T22:06:55.055Z,9.63
2023-06-22T22:09:57.560Z,9.88
2023-06-22T22:12:59.596Z,9.98
2023-06-22T22:16:02.456Z,9.27
2023-06-22T22:19:04.367Z,8.35
2023-06-22T22:22:07.259Z,8.00
2023-06-22T22:25:09.694Z,7.65
2023-06-22T22:28:11.638Z,7.57
2023-06-22T22:31:14.449Z,6.57
2023-06-22T22:34:16.845Z,7.07
2023-06-22T22:37:19.462Z,6.90
2023-06-22T22:40:21.680Z,6.30
2023-06-22T22:43:23.820Z,5.47
2023-06-22T22:46:27.248Z,6.45
2023-06-22T22:49:31.667Z,6.00
2023-06-22T22:52:39.053Z,6.30
2023-06-22T22:55:41.598Z,6.10
2023-06-22T22:58:45.649Z,6.43
2023-06-22T23:01:56.902Z,5.95
2023-06-22T23:05:36.114Z,6.32
2023-06-22T23:08:57.530Z,6.38
2023-06-22T23:12:00.903Z,6.47
2023-06-22T23:15:07.720Z,6.07
2023-06-22T23:18:10.548Z,6.03
2023-06-22T23:21:13.132Z,5.90
2023-06-22T23:24:15.265Z,6.03
2023-06-22T23:27:17.746Z,5.95
2023-06-22T23:30:20.844Z,5.50
2023-06-22T23:33:25.668Z,5.47
2023-06-22T23:36:28.050Z,6.20
2023-06-22T23:39:30.471Z,5.72
2023-06-22T23:42:32.678Z,6.68
2023-06-22T23:45:35.418Z,6.40
2023-06-22T23:48:37.801Z,6.07
2023-06-22T23:51:39.871Z,6.50
2023-06-22T23:54:41.960Z,6.60
2023-06-22T23:57:45.144Z,6.30
